MMCV

Details ICAO MMCV (CVM)
Name GENERAL PEDRO JOSE MENDEZ INTL
Region Mexico
Timezone America/Monterrey (UTC-5.0)
Plans Departing 10
Arriving 5
Stats Elevation 761 ft / 232 m (AMSL)
Location 23.706730° -98.961506°
Runways 2
Magnetic Variation 4.454° E
Sunrise 2018-05-22 11:52:23 UTC / 2018-05-22 06:52:23 Local
Sunset 2018-05-23 01:15:33 UTC / 2018-05-22 20:15:33 Local
Advertisement - Login to hide

Runways

ID Width Length Bearing (true) Bearing (mag) Surface Threshold Offset Overrun Length
15 148 ft / 45 m 7,248 ft / 2,209 m 156.63° 152.18° Asphalt 0 ft / 0 m 200 ft / 61 m
17 98 ft / 30 m 4,672 ft / 1,424 m 180.84° 176.39° Asphalt 0 ft / 0 m 0 ft / 0 m
33 148 ft / 45 m 7,248 ft / 2,209 m 336.64° 332.19° Asphalt 0 ft / 0 m 200 ft / 61 m
35 98 ft / 30 m 4,672 ft / 1,424 m 0.84° 356.39° Asphalt 0 ft / 0 m 0 ft / 0 m

Map

Weather


0- 5 10 15 20 25 30 35+ Temperature / ° C

Clouds and Precipitation
Forecast for 2018-05-23 00:00 UTC. Updated 44 minutes ago

Ground ~20,000 ft ~40,000 ft Winds

METAR

MMCV 222345Z E09010KT 7SM BKN015TCU 29/21 A2985 RMK SLP096 57011 903 8/200 HZ

TAF

TAF MMCV 221711Z 2218/2318 14015KT P6SM SCT025 TEMPO 2221/2301 BKN020 VC CB FM230600 14010KT 5SM HZ SCT015 TEMPO 2312/2316 2SM BR SCT003

Frequencies

Tower 118.20 MHz VICTORIA TWR
Approach 124.50 MHz MONTERREY CNTR
Warning: Do not use this data for real-world aviation or navigation. No guarantee of current accuracy is given.